sensor_id;sensor_type;location;lat;lon;timestamp;pressure;altitude;pressure_sealevel;temperature;humidity
45327;BME280;31062;49.678;24.560;2024-01-27T00:01:26;98131.53;;;1.16;73.29
45327;BME280;31062;49.678;24.560;2024-01-27T00:04:12;98116.38;;;1.15;73.21
45327;BME280;31062;49.678;24.560;2024-01-27T00:06:58;98133.44;;;1.21;73.76
45327;BME280;31062;49.678;24.560;2024-01-27T00:09:44;98123.75;;;1.20;73.11
45327;BME280;31062;49.678;24.560;2024-01-27T00:12:29;98125.25;;;1.21;73.92
45327;BME280;31062;49.678;24.560;2024-01-27T00:15:15;97985.22;;;0.22;73.67
45327;BME280;31062;49.678;24.560;2024-01-27T00:18:01;98125.25;;;1.21;73.52
45327;BME280;31062;49.678;24.560;2024-01-27T00:20:48;98136.16;;;1.21;73.81
45327;BME280;31062;49.678;24.560;2024-01-27T00:23:54;98123.03;;;1.20;73.77
45327;BME280;31062;49.678;24.560;2024-01-27T00:27:04;98115.38;;;1.18;74.08
45327;BME280;31062;49.678;24.560;2024-01-27T00:30:11;98117.88;;;1.16;74.00
45327;BME280;31062;49.678;24.560;2024-01-27T00:33:16;98112.41;;;1.16;73.82
45327;BME280;31062;49.678;24.560;2024-01-27T00:36:22;98102.97;;;1.17;73.82
45327;BME280;31062;49.678;24.560;2024-01-27T00:39:28;98104.44;;;1.18;73.85
45327;BME280;31062;49.678;24.560;2024-01-27T00:42:35;98105.41;;;1.21;73.82
45327;BME280;31062;49.678;24.560;2024-01-27T00:45:40;98100.44;;;1.19;74.09
45327;BME280;31062;49.678;24.560;2024-01-27T00:48:46;98100.44;;;1.19;74.02
45327;BME280;31062;49.678;24.560;2024-01-27T00:51:52;98099.00;;;1.18;73.88
45327;BME280;31062;49.678;24.560;2024-01-27T00:54:58;98097.72;;;1.19;73.92
45327;BME280;31062;49.678;24.560;2024-01-27T00:58:04;98093.28;;;1.16;74.17
45327;BME280;31062;49.678;24.560;2024-01-27T01:01:09;98086.13;;;1.13;74.55
45327;BME280;31062;49.678;24.560;2024-01-27T01:04:15;98100.31;;;1.12;74.99
45327;BME280;31062;49.678;24.560;2024-01-27T01:07:01;98091.38;;;1.11;75.48
45327;BME280;31062;49.678;24.560;2024-01-27T01:09:47;98085.41;;;1.13;75.88
45327;BME280;31062;49.678;24.560;2024-01-27T01:12:33;98062.50;;;0.97;75.57
45327;BME280;31062;49.678;24.560;2024-01-27T01:15:19;98079.78;;;1.05;75.86
45327;BME280;31062;49.678;24.560;2024-01-27T01:18:06;98047.75;;;0.87;76.66
45327;BME280;31062;49.678;24.560;2024-01-27T01:20:52;98077.50;;;1.09;76.24
45327;BME280;31062;49.678;24.560;2024-01-27T01:23:38;98081.47;;;1.08;76.95
45327;BME280;31062;49.678;24.560;2024-01-27T01:26:24;98084.19;;;1.08;77.35
45327;BME280;31062;49.678;24.560;2024-01-27T01:29:10;98080.44;;;1.11;76.91
45327;BME280;31062;49.678;24.560;2024-01-27T01:31:55;98068.72;;;1.16;77.46
45327;BME280;31062;49.678;24.560;2024-01-27T01:34:41;98080.06;;;1.20;77.21
45327;BME280;31062;49.678;24.560;2024-01-27T01:37:27;98073.88;;;1.20;77.62
45327;BME280;31062;49.678;24.560;2024-01-27T01:40:14;98067.25;;;1.15;77.65
45327;BME280;31062;49.678;24.560;2024-01-27T01:43:03;98068.41;;;1.20;77.95
45327;BME280;31062;49.678;24.560;2024-01-27T01:45:50;98073.13;;;1.19;77.54
45327;BME280;31062;49.678;24.560;2024-01-27T01:48:47;98065.19;;;1.21;77.87
45327;BME280;31062;49.678;24.560;2024-01-27T01:51:33;98062.69;;;1.23;77.47
45327;BME280;31062;49.678;24.560;2024-01-27T01:54:19;98049.03;;;1.23;78.01
45327;BME280;31062;49.678;24.560;2024-01-27T01:57:08;98036.53;;;1.09;78.08
45327;BME280;31062;49.678;24.560;2024-01-27T01:59:54;98049.59;;;1.16;77.92
45327;BME280;31062;49.678;24.560;2024-01-27T02:02:39;98039.50;;;1.11;77.87
45327;BME280;31062;49.678;24.560;2024-01-27T02:05:26;98039.25;;;1.09;77.92
45327;BME280;31062;49.678;24.560;2024-01-27T02:08:11;98016.84;;;0.98;78.85
45327;BME280;31062;49.678;24.560;2024-01-27T02:10:58;98026.44;;;1.04;78.94
45327;BME280;31062;49.678;24.560;2024-01-27T02:13:43;98024.00;;;1.01;78.95
45327;BME280;31062;49.678;24.560;2024-01-27T02:16:29;98027.97;;;1.00;79.66
45327;BME280;31062;49.678;24.560;2024-01-27T02:19:15;98027.69;;;1.03;79.39
45327;BME280;31062;49.678;24.560;2024-01-27T02:22:01;98028.94;;;1.02;78.97
45327;BME280;31062;49.678;24.560;2024-01-27T02:24:47;98019.72;;;1.05;79.50
45327;BME280;31062;49.678;24.560;2024-01-27T02:27:34;98021.41;;;1.08;80.12
45327;BME280;31062;49.678;24.560;2024-01-27T02:30:19;98014.47;;;1.07;80.06
45327;BME280;31062;49.678;24.560;2024-01-27T02:33:07;97988.13;;;0.91;80.17
45327;BME280;31062;49.678;24.560;2024-01-27T02:35:53;98008.38;;;1.01;80.18
45327;BME280;31062;49.678;24.560;2024-01-27T02:38:39;98011.53;;;1.05;79.87
45327;BME280;31062;49.678;24.560;2024-01-27T02:41:25;97988.13;;;0.91;80.26
45327;BME280;31062;49.678;24.560;2024-01-27T02:44:11;97998.47;;;0.98;80.02
45327;BME280;31062;49.678;24.560;2024-01-27T02:47:17;97996.72;;;1.01;80.68
45327;BME280;31062;49.678;24.560;2024-01-27T02:50:23;97999.94;;;0.99;80.55
45327;BME280;31062;49.678;24.560;2024-01-27T02:53:29;97999.22;;;0.99;81.09
45327;BME280;31062;49.678;24.560;2024-01-27T02:56:34;97989.03;;;0.99;80.78
45327;BME280;31062;49.678;24.560;2024-01-27T02:59:41;97987.56;;;0.98;80.98
45327;BME280;31062;49.678;24.560;2024-01-27T03:02:46;98000.97;;;0.96;81.50
45327;BME280;31062;49.678;24.560;2024-01-27T03:05:52;98000.97;;;0.96;81.60
45327;BME280;31062;49.678;24.560;2024-01-27T03:08:58;98004.97;;;0.95;81.38
45327;BME280;31062;49.678;24.560;2024-01-27T03:12:04;97996.56;;;0.93;81.45
45327;BME280;31062;49.678;24.560;2024-01-27T03:15:12;98002.75;;;0.94;81.67
45327;BME280;31062;49.678;24.560;2024-01-27T03:18:17;98001.19;;;0.98;82.29
45327;BME280;31062;49.678;24.560;2024-01-27T03:21:23;98001.88;;;1.04;81.71
45327;BME280;31062;49.678;24.560;2024-01-27T03:24:30;98001.56;;;1.08;81.71
45327;BME280;31062;49.678;24.560;2024-01-27T03:27:36;97972.72;;;0.94;81.58
45327;BME280;31062;49.678;24.560;2024-01-27T03:30:41;98002.75;;;1.12;81.91
45327;BME280;31062;49.678;24.560;2024-01-27T03:33:47;98004.44;;;1.15;81.86
45327;BME280;31062;49.678;24.560;2024-01-27T03:36:54;98007.84;;;1.21;81.49
45327;BME280;31062;49.678;24.560;2024-01-27T03:40:00;98000.06;;;1.26;81.88
45327;BME280;31062;49.678;24.560;2024-01-27T03:43:05;98007.00;;;1.27;81.26
45327;BME280;31062;49.678;24.560;2024-01-27T03:46:11;97997.78;;;1.30;81.83
45327;BME280;31062;49.678;24.560;2024-01-27T03:49:17;97998.00;;;1.32;81.53
45327;BME280;31062;49.678;24.560;2024-01-27T03:52:23;98000.22;;;1.33;81.37
45327;BME280;31062;49.678;24.560;2024-01-27T03:55:29;97998.22;;;1.34;81.30
45327;BME280;31062;49.678;24.560;2024-01-27T03:58:35;98003.19;;;1.35;81.56
45327;BME280;31062;49.678;24.560;2024-01-27T04:01:41;98001.38;;;1.38;81.03
45327;BME280;31062;49.678;24.560;2024-01-27T04:04:48;97995.91;;;1.38;81.69
45327;BME280;31062;49.678;24.560;2024-01-27T04:07:54;97993.41;;;1.40;81.42
45327;BME280;31062;49.678;24.560;2024-01-27T04:11:04;97980.34;;;1.33;81.46
45327;BME280;31062;49.678;24.560;2024-01-27T04:14:11;98003.22;;;1.48;81.74
45327;BME280;31062;49.678;24.560;2024-01-27T04:17:16;98012.16;;;1.49;81.92
45327;BME280;31062;49.678;24.560;2024-01-27T04:20:22;97990.91;;;1.42;81.96
45327;BME280;31062;49.678;24.560;2024-01-27T04:23:28;98015.09;;;1.51;82.30
45327;BME280;31062;49.678;24.560;2024-01-27T04:26:33;98001.53;;;1.45;82.59
45327;BME280;31062;49.678;24.560;2024-01-27T04:29:39;98007.31;;;1.42;84.17
45327;BME280;31062;49.678;24.560;2024-01-27T04:32:44;97998.88;;;1.40;84.90
45327;BME280;31062;49.678;24.560;2024-01-27T04:35:50;98006.84;;;1.38;85.80
45327;BME280;31062;49.678;24.560;2024-01-27T04:38:56;97994.47;;;1.37;86.60
45327;BME280;31062;49.678;24.560;2024-01-27T04:42:01;98015.59;;;1.36;87.41
45327;BME280;31062;49.678;24.560;2024-01-27T04:45:08;98007.91;;;1.35;88.15
45327;BME280;31062;49.678;24.560;2024-01-27T04:48:13;98014.38;;;1.32;89.03
45327;BME280;31062;49.678;24.560;2024-01-27T04:51:19;98017.34;;;1.34;89.08
45327;BME280;31062;49.678;24.560;2024-01-27T04:54:25;98022.81;;;1.34;89.06
45327;BME280;31062;49.678;24.560;2024-01-27T04:57:31;98027.84;;;1.30;89.11
45327;BME280;31062;49.678;24.560;2024-01-27T05:00:36;98033.72;;;1.34;89.35
45327;BME280;31062;49.678;24.560;2024-01-27T05:03:42;98035.81;;;1.28;89.93
45327;BME280;31062;49.678;24.560;2024-01-27T05:06:48;98055.34;;;1.32;90.63
45327;BME280;31062;49.678;24.560;2024-01-27T05:09:56;98048.19;;;1.29;90.63
45327;BME280;31062;49.678;24.560;2024-01-27T05:13:04;98050.13;;;1.34;90.25
45327;BME280;31062;49.678;24.560;2024-01-27T05:16:10;98047.16;;;1.32;91.08
45327;BME280;31062;49.678;24.560;2024-01-27T05:19:15;98046.72;;;1.28;91.36
45327;BME280;31062;49.678;24.560;2024-01-27T05:22:22;98060.69;;;1.43;90.55
45327;BME280;31062;49.678;24.560;2024-01-27T05:25:28;98045.75;;;1.44;90.37
45327;BME280;31062;49.678;24.560;2024-01-27T05:28:34;98072.56;;;1.45;90.87
45327;BME280;31062;49.678;24.560;2024-01-27T05:31:39;98078.16;;;1.53;90.17
45327;BME280;31062;49.678;24.560;2024-01-27T05:34:46;98076.47;;;1.50;89.82
45327;BME280;31062;49.678;24.560;2024-01-27T05:37:51;98093.97;;;1.60;89.82
45327;BME280;31062;49.678;24.560;2024-01-27T05:41:00;98015.94;;;1.08;89.85
45327;BME280;31062;49.678;24.560;2024-01-27T05:44:06;98086.19;;;1.64;89.60
45327;BME280;31062;49.678;24.560;2024-01-27T05:47:12;98094.41;;;1.64;90.19
45327;BME280;31062;49.678;24.560;2024-01-27T05:50:18;98101.34;;;1.65;89.99
45327;BME280;31062;49.678;24.560;2024-01-27T05:53:24;98103.56;;;1.67;89.56
45327;BME280;31062;49.678;24.560;2024-01-27T05:56:29;98115.66;;;1.71;89.28
45327;BME280;31062;49.678;24.560;2024-01-27T05:59:35;98115.88;;;1.73;88.87
45327;BME280;31062;49.678;24.560;2024-01-27T06:02:40;98109.16;;;1.74;88.93
45327;BME280;31062;49.678;24.560;2024-01-27T06:05:46;98119.50;;;1.81;88.49
45327;BME280;31062;49.678;24.560;2024-01-27T06:08:52;98117.28;;;1.80;88.26
45327;BME280;31062;49.678;24.560;2024-01-27T06:11:59;98129.91;;;1.83;87.99
45327;BME280;31062;49.678;24.560;2024-01-27T06:15:05;98136.56;;;1.87;88.41
45327;BME280;31062;49.678;24.560;2024-01-27T06:18:11;98132.13;;;1.84;87.79
45327;BME280;31062;49.678;24.560;2024-01-27T06:21:16;98148.47;;;1.90;87.79
45327;BME280;31062;49.678;24.560;2024-01-27T06:24:22;98001.56;;;0.89;87.89
45327;BME280;31062;49.678;24.560;2024-01-27T06:27:28;98144.75;;;1.87;87.87
45327;BME280;31062;49.678;24.560;2024-01-27T06:30:33;98161.00;;;1.98;87.23
45327;BME280;31062;49.678;24.560;2024-01-27T06:33:39;98153.03;;;2.00;87.13
45327;BME280;31062;49.678;24.560;2024-01-27T06:36:46;98158.72;;;2.02;87.17
45327;BME280;31062;49.678;24.560;2024-01-27T06:39:52;98161.72;;;1.99;86.54
45327;BME280;31062;49.678;24.560;2024-01-27T06:42:57;98169.84;;;2.04;86.32
45327;BME280;31062;49.678;24.560;2024-01-27T06:46:04;98169.66;;;2.02;86.44
45327;BME280;31062;49.678;24.560;2024-01-27T06:49:09;98178.56;;;2.03;86.17
45327;BME280;31062;49.678;24.560;2024-01-27T06:52:15;98176.38;;;2.01;86.00
45327;BME280;31062;49.678;24.560;2024-01-27T06:55:20;98184.78;;;2.03;86.10
45327;BME280;31062;49.678;24.560;2024-01-27T06:58:28;98190.25;;;2.03;86.20
45327;BME280;31062;49.678;24.560;2024-01-27T07:01:34;98197.00;;;2.02;86.55
45327;BME280;31062;49.678;24.560;2024-01-27T07:04:39;98190.06;;;2.01;86.37
45327;BME280;31062;49.678;24.560;2024-01-27T07:07:45;98201.19;;;2.03;86.66
45327;BME280;31062;49.678;24.560;2024-01-27T07:10:51;98210.66;;;2.02;86.58
45327;BME280;31062;49.678;24.560;2024-01-27T07:13:56;98208.97;;;1.99;86.33
45327;BME280;31062;49.678;24.560;2024-01-27T07:17:03;98218.88;;;2.02;86.30
45327;BME280;31062;49.678;24.560;2024-01-27T07:20:09;98209.69;;;2.00;85.76
45327;BME280;31062;49.678;24.560;2024-01-27T07:23:15;98214.66;;;2.01;85.74
45327;BME280;31062;49.678;24.560;2024-01-27T07:26:21;98228.75;;;2.05;85.54
45327;BME280;31062;49.678;24.560;2024-01-27T07:29:27;98226.25;;;2.08;85.62
45327;BME280;31062;49.678;24.560;2024-01-27T07:32:33;98226.47;;;2.10;85.94
45327;BME280;31062;49.678;24.560;2024-01-27T07:35:38;98231.94;;;2.10;85.97
45327;BME280;31062;49.678;24.560;2024-01-27T07:38:45;98235.63;;;2.12;85.94
45327;BME280;31062;49.678;24.560;2024-01-27T07:41:50;98241.84;;;2.13;85.74
45327;BME280;31062;49.678;24.560;2024-01-27T07:44:56;98251.72;;;2.16;85.37
45327;BME280;31062;49.678;24.560;2024-01-27T07:48:02;98241.53;;;2.16;85.75
45327;BME280;31062;49.678;24.560;2024-01-27T07:51:08;98249.75;;;2.16;85.14
45327;BME280;31062;49.678;24.560;2024-01-27T07:54:13;98242.44;;;2.05;85.54
45327;BME280;31062;49.678;24.560;2024-01-27T07:57:20;98264.47;;;2.13;85.67
45327;BME280;31062;49.678;24.560;2024-01-27T08:00:26;98255.28;;;2.11;85.17
45327;BME280;31062;49.678;24.560;2024-01-27T08:03:32;98267.28;;;2.08;86.02
45327;BME280;31062;49.678;24.560;2024-01-27T08:06:49;98283.97;;;2.04;85.91
45327;BME280;31062;49.678;24.560;2024-01-27T08:09:56;98268.59;;;2.01;86.34
45327;BME280;31062;49.678;24.560;2024-01-27T08:13:04;98275.81;;;1.98;86.35
45327;BME280;31062;49.678;24.560;2024-01-27T08:16:10;98272.59;;;2.00;86.58
45327;BME280;31062;49.678;24.560;2024-01-27T08:19:15;98287.56;;;1.93;86.73
45327;BME280;31062;49.678;24.560;2024-01-27T08:22:21;98300.66;;;2.00;86.41
45327;BME280;31062;49.678;24.560;2024-01-27T08:25:27;98306.13;;;2.00;86.94
45327;BME280;31062;49.678;24.560;2024-01-27T08:28:13;98304.66;;;1.99;86.65
45327;BME280;31062;49.678;24.560;2024-01-27T08:31:19;98315.59;;;1.99;86.42
45327;BME280;31062;49.678;24.560;2024-01-27T08:34:05;98315.59;;;1.99;86.99
45327;BME280;31062;49.678;24.560;2024-01-27T08:37:17;98316.16;;;1.92;87.03
45327;BME280;31062;49.678;24.560;2024-01-27T08:40:23;98328.00;;;2.00;86.85
45327;BME280;31062;49.678;24.560;2024-01-27T08:43:29;98337.22;;;1.97;86.83
45327;BME280;31062;49.678;24.560;2024-01-27T08:46:34;98333.75;;;1.97;87.52
45327;BME280;31062;49.678;24.560;2024-01-27T08:49:45;98348.41;;;1.99;87.20
45327;BME280;31062;49.678;24.560;2024-01-27T08:52:51;98351.38;;;2.01;86.76
45327;BME280;31062;49.678;24.560;2024-01-27T08:55:56;98344.19;;;1.98;87.28
45327;BME280;31062;49.678;24.560;2024-01-27T08:59:02;98358.03;;;2.06;87.14
45327;BME280;31062;49.678;24.560;2024-01-27T09:02:07;98365.72;;;2.08;86.80
45327;BME280;31062;49.678;24.560;2024-01-27T09:05:13;98358.78;;;2.07;86.57
45327;BME280;31062;49.678;24.560;2024-01-27T09:08:19;98359.66;;;2.15;86.75
45327;BME280;31062;49.678;24.560;2024-01-27T09:11:29;98353.50;;;2.09;86.87
45327;BME280;31062;49.678;24.560;2024-01-27T09:14:35;98357.16;;;2.17;86.73
45327;BME280;31062;49.678;24.560;2024-01-27T09:17:41;98360.84;;;2.19;86.35
45327;BME280;31062;49.678;24.560;2024-01-27T09:20:47;98342.34;;;2.07;86.00
45327;BME280;31062;49.678;24.560;2024-01-27T09:23:54;98322.69;;;1.89;86.49
45327;BME280;31062;49.678;24.560;2024-01-27T09:27:01;98374.47;;;2.25;86.36
45327;BME280;31062;49.678;24.560;2024-01-27T09:30:07;98370.69;;;2.28;86.38
45327;BME280;31062;49.678;24.560;2024-01-27T09:33:17;98371.66;;;2.30;86.30
45327;BME280;31062;49.678;24.560;2024-01-27T09:36:26;98373.59;;;2.35;86.49
45327;BME280;31062;49.678;24.560;2024-01-27T09:39:11;98372.53;;;2.38;85.79
45327;BME280;31062;49.678;24.560;2024-01-27T09:42:20;98371.53;;;2.41;86.31
45327;BME280;31062;49.678;24.560;2024-01-27T09:45:08;98359.97;;;2.30;85.57
45327;BME280;31062;49.678;24.560;2024-01-27T09:47:59;98377.97;;;2.44;85.83
45327;BME280;31062;49.678;24.560;2024-01-27T09:50:48;98368.34;;;2.37;85.89
45327;BME280;31062;49.678;24.560;2024-01-27T09:53:35;98376.19;;;2.46;85.99
45327;BME280;31062;49.678;24.560;2024-01-27T09:56:22;98390.28;;;2.51;85.93
45327;BME280;31062;49.678;24.560;2024-01-27T09:59:08;98377.91;;;2.50;85.91
45327;BME280;31062;49.678;24.560;2024-01-27T10:01:56;98384.97;;;2.58;85.77
45327;BME280;31062;49.678;24.560;2024-01-27T10:04:43;98390.97;;;2.57;84.93
45327;BME280;31062;49.678;24.560;2024-01-27T10:07:31;98400.44;;;2.56;85.15
45327;BME280;31062;49.678;24.560;2024-01-27T10:10:17;98306.28;;;1.89;85.15
45327;BME280;31062;49.678;24.560;2024-01-27T10:13:03;98394.44;;;2.57;84.85
45327;BME280;31062;49.678;24.560;2024-01-27T10:15:59;98396.97;;;2.55;84.94
45327;BME280;31062;49.678;24.560;2024-01-27T10:18:45;98398.47;;;2.56;84.71
45327;BME280;31062;49.678;24.560;2024-01-27T10:21:31;98404.38;;;2.60;84.89
45327;BME280;31062;49.678;24.560;2024-01-27T10:24:37;98403.13;;;2.61;84.91
45327;BME280;31062;49.678;24.560;2024-01-27T10:27:42;98373.75;;;2.43;84.59
45327;BME280;31062;49.678;24.560;2024-01-27T10:30:48;98399.34;;;2.64;84.54
45327;BME280;31062;49.678;24.560;2024-01-27T10:33:55;98405.97;;;2.69;84.74
45327;BME280;31062;49.678;24.560;2024-01-27T10:36:47;98411.19;;;2.72;84.62
45327;BME280;31062;49.678;24.560;2024-01-27T10:39:33;98414.34;;;2.76;84.44
45327;BME280;31062;49.678;24.560;2024-01-27T10:42:19;98414.06;;;2.80;83.80
45327;BME280;31062;49.678;24.560;2024-01-27T10:45:06;98419.00;;;2.81;83.82
45327;BME280;31062;49.678;24.560;2024-01-27T10:47:55;98421.97;;;2.83;83.54
45327;BME280;31062;49.678;24.560;2024-01-27T10:50:42;98425.97;;;2.82;83.25
45327;BME280;31062;49.678;24.560;2024-01-27T10:53:31;98430.19;;;2.83;83.46
45327;BME280;31062;49.678;24.560;2024-01-27T10:56:21;98424.94;;;2.85;83.53
45327;BME280;31062;49.678;24.560;2024-01-27T10:59:09;98433.38;;;2.87;83.27
45327;BME280;31062;49.678;24.560;2024-01-27T11:01:56;98432.63;;;2.87;83.01
45327;BME280;31062;49.678;24.560;2024-01-27T11:04:43;98434.41;;;2.84;82.30
45327;BME280;31062;49.678;24.560;2024-01-27T11:07:49;98428.63;;;2.88;82.74
45327;BME280;31062;49.678;24.560;2024-01-27T11:10:55;98432.34;;;2.91;82.92
45327;BME280;31062;49.678;24.560;2024-01-27T11:13:41;98443.28;;;2.91;82.71
45327;BME280;31062;49.678;24.560;2024-01-27T11:16:27;98429.81;;;2.93;82.62
45327;BME280;31062;49.678;24.560;2024-01-27T11:19:17;98424.72;;;2.83;82.10
45327;BME280;31062;49.678;24.560;2024-01-27T11:22:03;98348.53;;;2.31;82.13
45327;BME280;31062;49.678;24.560;2024-01-27T11:24:49;98429.53;;;2.96;82.15
45327;BME280;31062;49.678;24.560;2024-01-27T11:27:35;98438.09;;;3.06;81.93
45327;BME280;31062;49.678;24.560;2024-01-27T11:30:47;98448.44;;;3.13;81.73
45327;BME280;31062;49.678;24.560;2024-01-27T11:33:53;98446.38;;;3.19;81.35
45327;BME280;31062;49.678;24.560;2024-01-27T11:37:10;98454.00;;;3.26;81.71
45327;BME280;31062;49.678;24.560;2024-01-27T11:40:15;98459.41;;;3.32;81.25
45327;BME280;31062;49.678;24.560;2024-01-27T11:43:21;98435.09;;;3.22;81.26
45327;BME280;31062;49.678;24.560;2024-01-27T11:46:08;98465.72;;;3.40;81.45
45327;BME280;31062;49.678;24.560;2024-01-27T11:49:15;98470.41;;;3.45;81.25
45327;BME280;31062;49.678;24.560;2024-01-27T11:53:00;98471.34;;;3.47;81.02
45327;BME280;31062;49.678;24.560;2024-01-27T11:56:46;98474.31;;;3.49;81.23
45327;BME280;31062;49.678;24.560;2024-01-27T12:00:12;98338.53;;;2.53;79.98
45327;BME280;31062;49.678;24.560;2024-01-27T12:03:38;98483.06;;;3.48;80.35
45327;BME280;31062;49.678;24.560;2024-01-27T12:07:03;98491.38;;;3.42;80.65
45327;BME280;31062;49.678;24.560;2024-01-27T12:10:09;98496.19;;;3.36;80.62
45327;BME280;31062;49.678;24.560;2024-01-27T12:12:55;98500.72;;;3.34;80.91
45327;BME280;31062;49.678;24.560;2024-01-27T12:15:42;98491.09;;;3.27;81.13
45327;BME280;31062;49.678;24.560;2024-01-27T12:18:52;98485.91;;;3.23;81.35
45327;BME280;31062;49.678;24.560;2024-01-27T12:21:58;98511.38;;;3.37;81.54
45327;BME280;31062;49.678;24.560;2024-01-27T12:25:11;98518.34;;;3.38;81.66
45327;BME280;31062;49.678;24.560;2024-01-27T12:28:17;98526.75;;;3.40;81.56
45327;BME280;31062;49.678;24.560;2024-01-27T12:31:04;98518.03;;;3.42;81.52
45327;BME280;31062;49.678;24.560;2024-01-27T12:33:52;98527.66;;;3.48;82.22
45327;BME280;31062;49.678;24.560;2024-01-27T12:36:58;98527.66;;;3.48;81.86
45327;BME280;31062;49.678;24.560;2024-01-27T12:40:26;98530.63;;;3.50;82.05
45327;BME280;31062;49.678;24.560;2024-01-27T12:43:32;98541.06;;;3.52;82.03
45327;BME280;31062;49.678;24.560;2024-01-27T12:46:37;98540.53;;;3.53;81.99
45327;BME280;31062;49.678;24.560;2024-01-27T12:49:45;98542.19;;;3.43;81.81
45327;BME280;31062;49.678;24.560;2024-01-27T12:52:51;98544.41;;;3.45;81.93
45327;BME280;31062;49.678;24.560;2024-01-27T12:55:57;98541.00;;;3.39;82.24
45327;BME280;31062;49.678;24.560;2024-01-27T12:59:04;98554.63;;;3.44;82.25
45327;BME280;31062;49.678;24.560;2024-01-27T13:02:00;98553.16;;;3.43;82.30
45327;BME280;31062;49.678;24.560;2024-01-27T13:04:45;98560.69;;;3.37;82.19
45327;BME280;31062;49.678;24.560;2024-01-27T13:07:33;98567.88;;;3.40;82.22
45327;BME280;31062;49.678;24.560;2024-01-27T13:10:19;98572.09;;;3.41;82.30
45327;BME280;31062;49.678;24.560;2024-01-27T13:13:25;98572.84;;;3.42;82.17
45327;BME280;31062;49.678;24.560;2024-01-27T13:16:34;98573.59;;;3.42;82.23
45327;BME280;31062;49.678;24.560;2024-01-27T13:19:40;98570.69;;;3.35;82.37
45327;BME280;31062;49.678;24.560;2024-01-27T13:22:46;98586.03;;;3.43;81.74
45327;BME280;31062;49.678;24.560;2024-01-27T13:25:52;98591.53;;;3.43;82.07
45327;BME280;31062;49.678;24.560;2024-01-27T13:29:06;98574.91;;;3.36;81.76
45327;BME280;31062;49.678;24.560;2024-01-27T13:32:12;98587.06;;;3.40;81.65
45327;BME280;31062;49.678;24.560;2024-01-27T13:35:18;98599.75;;;3.43;81.55
45327;BME280;31062;49.678;24.560;2024-01-27T13:38:23;98604.25;;;3.41;81.67
45327;BME280;31062;49.678;24.560;2024-01-27T13:41:09;98607.53;;;3.39;81.79
45327;BME280;31062;49.678;24.560;2024-01-27T13:43:55;98597.16;;;3.32;82.02
45327;BME280;31062;49.678;24.560;2024-01-27T13:47:01;98619.34;;;3.28;81.98
45327;BME280;31062;49.678;24.560;2024-01-27T13:50:08;98630.59;;;3.25;82.44
45327;BME280;31062;49.678;24.560;2024-01-27T13:53:14;98612.69;;;3.24;82.57
45327;BME280;31062;49.678;24.560;2024-01-27T13:56:31;98651.03;;;3.24;82.43
45327;BME280;31062;49.678;24.560;2024-01-27T13:59:37;98626.88;;;3.22;82.46
45327;BME280;31062;49.678;24.560;2024-01-27T14:02:43;98623.94;;;3.20;82.37
45327;BME280;31062;49.678;24.560;2024-01-27T14:05:50;98620.81;;;3.11;82.17
45327;BME280;31062;49.678;24.560;2024-01-27T14:08:55;98634.16;;;3.20;82.58
45327;BME280;31062;49.678;24.560;2024-01-27T14:12:01;98626.38;;;3.24;82.81
45327;BME280;31062;49.678;24.560;2024-01-27T14:15:07;98636.53;;;3.29;82.17
45327;BME280;31062;49.678;24.560;2024-01-27T14:18:13;98640.53;;;3.28;82.49
45327;BME280;31062;49.678;24.560;2024-01-27T14:21:20;98614.31;;;3.14;82.54
45327;BME280;31062;49.678;24.560;2024-01-27T14:24:26;98637.84;;;3.22;82.81
45327;BME280;31062;49.678;24.560;2024-01-27T14:27:31;98643.88;;;3.21;82.80
45327;BME280;31062;49.678;24.560;2024-01-27T14:30:38;98633.25;;;3.12;82.65
45327;BME280;31062;49.678;24.560;2024-01-27T14:33:25;98645.69;;;3.13;83.02
45327;BME280;31062;49.678;24.560;2024-01-27T14:36:31;98645.44;;;3.11;82.73
45327;BME280;31062;49.678;24.560;2024-01-27T14:39:37;98656.41;;;3.11;82.98
45327;BME280;31062;49.678;24.560;2024-01-27T14:42:43;98653.47;;;3.09;83.03
45327;BME280;31062;49.678;24.560;2024-01-27T14:45:48;98660.47;;;3.04;82.95
45327;BME280;31062;49.678;24.560;2024-01-27T14:48:54;98667.28;;;2.98;83.09
45327;BME280;31062;49.678;24.560;2024-01-27T14:52:00;98553.72;;;2.01;82.85
45327;BME280;31062;49.678;24.560;2024-01-27T14:55:06;98675.72;;;3.00;83.01
45327;BME280;31062;49.678;24.560;2024-01-27T14:58:11;98682.69;;;3.01;83.36
45327;BME280;31062;49.678;24.560;2024-01-27T15:01:17;98682.69;;;3.01;83.25
45327;BME280;31062;49.678;24.560;2024-01-27T15:04:24;98691.88;;;3.03;82.84
45327;BME280;31062;49.678;24.560;2024-01-27T15:07:30;98688.59;;;3.05;83.15
45327;BME280;31062;49.678;24.560;2024-01-27T15:10:38;98690.31;;;3.08;82.84
45327;BME280;31062;49.678;24.560;2024-01-27T15:13:46;98695.34;;;3.04;82.86
45327;BME280;31062;49.678;24.560;2024-01-27T15:16:52;98607.56;;;2.42;83.06
45327;BME280;31062;49.678;24.560;2024-01-27T15:19:38;98706.06;;;3.02;82.66
45327;BME280;31062;49.678;24.560;2024-01-27T15:22:26;98715.25;;;3.04;82.87
45327;BME280;31062;49.678;24.560;2024-01-27T15:25:31;98721.75;;;3.01;82.93
45327;BME280;31062;49.678;24.560;2024-01-27T15:28:37;98737.44;;;3.01;82.82
45327;BME280;31062;49.678;24.560;2024-01-27T15:31:23;98739.22;;;2.98;83.06
45327;BME280;31062;49.678;24.560;2024-01-27T15:34:28;98735.97;;;3.00;83.50
45327;BME280;31062;49.678;24.560;2024-01-27T15:37:34;98739.69;;;3.02;83.04
45327;BME280;31062;49.678;24.560;2024-01-27T15:40:40;98754.34;;;3.05;83.56
45327;BME280;31062;49.678;24.560;2024-01-27T15:43:46;98751.38;;;3.03;83.36
45327;BME280;31062;49.678;24.560;2024-01-27T15:46:52;98760.84;;;3.02;83.29
45327;BME280;31062;49.678;24.560;2024-01-27T15:49:57;98767.81;;;3.03;83.10
45327;BME280;31062;49.678;24.560;2024-01-27T15:53:03;98769.31;;;3.04;83.16
45327;BME280;31062;49.678;24.560;2024-01-27T15:56:09;98769.81;;;3.02;83.07
45327;BME280;31062;49.678;24.560;2024-01-27T15:59:15;98779.97;;;3.07;83.16